Time;durP1;ratioP1;P1;durP2;ratioP2;P2;SDS_P1;SDS_P2;PMS_P1;PMS_P2;Temp;Humidity;BMP_temperature;BMP_pressure;BME280_temperature;BME280_humidity;BME280_pressure;Samples;Min_cycle;Max_cycle;Signal;HPM_P1;HPM_P2
2022/11/02 00:02:03;;;;;;;11.80;6.22;;;;;;;;;;5090931;28;20044;-51
2022/11/02 00:04:31;;;;;;;8.85;4.07;;;;;;;;;;5088957;28;20067;-55
2022/11/02 00:06:58;;;;;;;8.15;5.13;;;;;;;;;;5091425;28;20063;-52
2022/11/02 00:09:40;;;;;;;9.23;4.82;;;;;;;;;;5091909;28;20076;-52
2022/11/02 00:12:07;;;;;;;7.93;3.78;;;;;;;;;;5084740;28;20079;-52
2022/11/02 00:14:33;;;;;;;7.70;3.78;;;;;;;;;;5086269;28;20055;-51
2022/11/02 00:17:06;;;;;;;5.88;3.78;;;;;;;;;;5092740;28;20427;-51
2022/11/02 00:19:34;;;;;;;8.23;4.45;;;;;;;;;;5092680;28;20055;-51
2022/11/02 00:22:02;;;;;;;11.07;4.97;;;;;;;;;;5092734;28;20114;-54
2022/11/02 00:24:32;;;;;;;7.18;4.20;;;;;;;;;;5092315;28;20044;-51
2022/11/02 00:26:59;;;;;;;11.02;5.97;;;;;;;;;;5092701;28;20075;-51
2022/11/02 00:29:26;;;;;;;8.23;4.20;;;;;;;;;;5092867;28;20156;-54
2022/11/02 00:31:54;;;;;;;7.95;4.53;;;;;;;;;;5092322;28;20530;-53
2022/11/02 00:34:31;;;;;;;10.25;4.60;;;;;;;;;;5090781;28;20051;-54
2022/11/02 00:37:00;;;;;;;10.27;4.72;;;;;;;;;;5080556;28;20439;-52
2022/11/02 00:39:28;;;;;;;8.18;4.95;;;;;;;;;;5092619;28;20048;-55
2022/11/02 00:41:58;;;;;;;14.63;6.07;;;;;;;;;;5093091;28;20051;-52
2022/11/02 00:44:26;;;;;;;8.23;4.53;;;;;;;;;;5096143;28;20129;-50
2022/11/02 00:46:54;;;;;;;6.95;4.38;;;;;;;;;;5096866;28;20059;-55
2022/11/02 00:49:24;;;;;;;13.80;5.20;;;;;;;;;;5096606;28;20169;-53
2022/11/02 00:51:51;;;;;;;11.15;4.70;;;;;;;;;;5096766;28;20074;-53
2022/11/02 00:54:18;;;;;;;9.40;5.22;;;;;;;;;;5096264;28;20070;-51
2022/11/02 00:56:45;;;;;;;10.90;5.47;;;;;;;;;;5096125;28;20080;-51
2022/11/02 00:59:13;;;;;;;10.43;4.55;;;;;;;;;;5095975;28;20652;-53
2022/11/02 01:01:46;;;;;;;13.25;6.28;;;;;;;;;;5095826;28;20067;-55
2022/11/02 01:04:16;;;;;;;12.75;5.20;;;;;;;;;;5086970;28;20518;-52
2022/11/02 01:06:46;;;;;;;8.57;5.07;;;;;;;;;;5095966;28;20484;-54
2022/11/02 01:09:14;;;;;;;10.00;5.35;;;;;;;;;;5096734;28;20067;-55
2022/11/02 01:11:42;;;;;;;11.07;5.10;;;;;;;;;;5096264;28;20508;-52
2022/11/02 01:14:10;;;;;;;16.52;6.35;;;;;;;;;;5091743;28;20051;-54
2022/11/02 01:16:38;;;;;;;12.75;7.10;;;;;;;;;;5095971;28;20044;-53
2022/11/02 01:19:07;;;;;;;12.40;6.72;;;;;;;;;;5095858;28;20062;-51
2022/11/02 01:21:34;;;;;;;13.00;6.10;;;;;;;;;;5095874;28;20084;-52
2022/11/02 01:24:16;;;;;;;13.07;7.57;;;;;;;;;;5096442;28;20073;-54
2022/11/02 01:26:43;;;;;;;14.85;6.68;;;;;;;;;;5095563;28;20554;-54
2022/11/02 01:29:13;;;;;;;11.80;6.63;;;;;;;;;;5096383;28;20044;-55
2022/11/02 01:31:40;;;;;;;8.00;5.07;;;;;;;;;;5095474;28;20067;-51
2022/11/02 01:34:08;;;;;;;13.52;7.00;;;;;;;;;;5095827;28;20055;-53
2022/11/02 01:36:35;;;;;;;12.45;6.80;;;;;;;;;;5095228;28;20055;-52
2022/11/02 01:39:12;;;;;;;13.55;6.78;;;;;;;;;;5095619;28;20461;-55
2022/11/02 01:41:38;;;;;;;10.52;5.75;;;;;;;;;;5094871;28;20060;-55
2022/11/02 01:44:25;;;;;;;11.00;6.07;;;;;;;;;;5095334;28;20601;-53
2022/11/02 01:47:02;;;;;;;14.85;7.90;;;;;;;;;;5085162;28;20044;-56
2022/11/02 01:49:31;;;;;;;11.98;6.05;;;;;;;;;;5095074;28;20122;-55
2022/11/02 01:52:04;;;;;;;12.25;7.18;;;;;;;;;;5095165;28;20048;-55
2022/11/02 01:54:36;;;;;;;12.32;5.95;;;;;;;;;;5094595;28;20059;-55
2022/11/02 01:57:05;;;;;;;12.98;5.55;;;;;;;;;;5095332;28;20055;-53
2022/11/02 01:59:35;;;;;;;10.45;5.57;;;;;;;;;;5093829;28;20062;-55
2022/11/02 02:02:05;;;;;;;19.33;8.82;;;;;;;;;;5095154;28;20048;-55
2022/11/02 02:04:34;;;;;;;10.75;5.80;;;;;;;;;;5095429;28;20044;-55
2022/11/02 02:07:02;;;;;;;11.25;6.00;;;;;;;;;;5095055;28;20048;-55
2022/11/02 02:09:29;;;;;;;12.05;5.88;;;;;;;;;;5095417;28;20048;-55
2022/11/02 02:12:03;;;;;;;9.57;5.50;;;;;;;;;;5095101;28;20052;-54
2022/11/02 02:14:31;;;;;;;11.00;5.43;;;;;;;;;;5094869;28;20473;-54
2022/11/02 02:17:07;;;;;;;9.70;5.57;;;;;;;;;;5094854;28;20149;-55
2022/11/02 02:19:38;;;;;;;8.27;4.65;;;;;;;;;;5094592;28;20779;-55
2022/11/02 02:22:17;;;;;;;9.60;5.38;;;;;;;;;;5092898;28;20060;-55
2022/11/02 02:24:54;;;;;;;9.23;4.95;;;;;;;;;;5094794;28;20043;-54
2022/11/02 02:27:28;;;;;;;10.95;5.57;;;;;;;;;;5086084;28;20056;-54
2022/11/02 02:30:06;;;;;;;12.52;6.32;;;;;;;;;;5094715;28;20052;-54
2022/11/02 02:32:38;;;;;;;14.13;7.15;;;;;;;;;;5094403;28;20059;-55
2022/11/02 02:35:12;;;;;;;13.60;5.85;;;;;;;;;;5094525;28;20084;-54
2022/11/02 02:37:42;;;;;;;9.68;5.65;;;;;;;;;;5094233;28;20072;-54
2022/11/02 02:40:19;;;;;;;11.25;5.97;;;;;;;;;;5094611;28;20051;-55
2022/11/02 02:42:48;;;;;;;13.85;5.85;;;;;;;;;;5094068;28;20362;-55
2022/11/02 02:45:24;;;;;;;13.73;6.38;;;;;;;;;;5094035;28;20055;-55
2022/11/02 02:47:59;;;;;;;17.50;7.65;;;;;;;;;;5092549;28;20071;-55
2022/11/02 02:50:31;;;;;;;11.50;5.63;;;;;;;;;;5094484;28;20129;-55
2022/11/02 02:52:59;;;;;;;10.20;5.97;;;;;;;;;;5090270;28;20639;-55
2022/11/02 02:55:29;;;;;;;12.57;6.32;;;;;;;;;;5093415;28;20399;-55
2022/11/02 02:57:57;;;;;;;10.82;4.82;;;;;;;;;;5094367;28;20051;-55
2022/11/02 03:00:28;;;;;;;13.05;5.55;;;;;;;;;;5093862;28;20051;-55
2022/11/02 03:03:02;;;;;;;15.52;6.28;;;;;;;;;;5094187;28;20052;-54
2022/11/02 03:05:32;;;;;;;10.63;5.47;;;;;;;;;;5091292;28;20044;-53
2022/11/02 03:08:04;;;;;;;13.43;5.57;;;;;;;;;;5093936;28;20134;-54
2022/11/02 03:10:37;;;;;;;20.38;7.07;;;;;;;;;;5094280;28;20083;-55
2022/11/02 03:13:11;;;;;;;11.35;5.38;;;;;;;;;;5094027;28;20089;-54
2022/11/02 03:15:46;;;;;;;13.95;6.45;;;;;;;;;;5093775;28;20085;-54
2022/11/02 03:18:18;;;;;;;14.10;6.85;;;;;;;;;;5093879;28;20048;-54
2022/11/02 03:20:54;;;;;;;15.63;5.68;;;;;;;;;;5091101;28;20052;-55
2022/11/02 03:23:25;;;;;;;13.13;6.25;;;;;;;;;;5092159;28;20060;-54
2022/11/02 03:25:56;;;;;;;16.80;6.93;;;;;;;;;;5093593;28;20040;-54
2022/11/02 03:28:31;;;;;;;11.45;6.18;;;;;;;;;;5093618;28;20044;-54
2022/11/02 03:31:10;;;;;;;18.90;7.38;;;;;;;;;;5086011;28;20113;-55
2022/11/02 03:33:38;;;;;;;19.23;7.63;;;;;;;;;;5081471;28;20080;-53
2022/11/02 03:36:08;;;;;;;14.88;7.35;;;;;;;;;;5092985;28;20055;-54
2022/11/02 03:38:46;;;;;;;16.80;7.10;;;;;;;;;;5092541;28;20074;-55
2022/11/02 03:41:15;;;;;;;15.02;7.00;;;;;;;;;;5089753;28;20374;-55
2022/11/02 03:43:44;;;;;;;11.88;5.80;;;;;;;;;;5091802;28;20048;-54
2022/11/02 03:46:15;;;;;;;16.67;7.32;;;;;;;;;;5088837;28;20052;-55
2022/11/02 03:48:43;;;;;;;14.40;7.25;;;;;;;;;;5088653;28;20529;-54
2022/11/02 03:51:19;;;;;;;16.33;7.32;;;;;;;;;;5089794;28;20051;-54
2022/11/02 03:53:56;;;;;;;13.13;6.63;;;;;;;;;;5093010;28;20044;-54
2022/11/02 03:56:28;;;;;;;14.45;6.75;;;;;;;;;;5087810;28;20083;-54
2022/11/02 03:58:56;;;;;;;16.48;7.88;;;;;;;;;;5091458;28;20520;-55
2022/11/02 04:01:27;;;;;;;16.20;7.28;;;;;;;;;;5091980;28;20070;-54
2022/11/02 04:03:55;;;;;;;17.55;7.70;;;;;;;;;;5093115;28;20052;-55
2022/11/02 04:06:26;;;;;;;12.60;6.32;;;;;;;;;;5092770;28;20040;-55
2022/11/02 04:08:53;;;;;;;14.48;6.18;;;;;;;;;;5092706;28;20047;-53
2022/11/02 04:19:36;;;;;;;13.30;6.60;;;;;;;;;;5091943;28;20445;-54
2022/11/02 04:27:34;;;;;;;14.30;6.60;;;;;;;;;;5092546;28;20092;-55
2022/11/02 04:30:01;;;;;;;15.18;5.80;;;;;;;;;;5087302;28;20052;-55
2022/11/02 04:35:15;;;;;;;13.35;6.20;;;;;;;;;;5092662;28;20194;-54
2022/11/02 04:40:29;;;;;;;17.02;8.95;;;;;;;;;;5091011;28;20050;-55
2022/11/02 04:42:56;;;;;;;16.23;8.73;;;;;;;;;;5079415;28;20056;-54
2022/11/02 04:45:25;;;;;;;19.85;9.95;;;;;;;;;;5091571;28;20066;-55
2022/11/02 04:47:59;;;;;;;16.48;9.80;;;;;;;;;;5092510;28;20048;-53
2022/11/02 04:50:29;;;;;;;17.70;9.55;;;;;;;;;;5092371;28;20067;-51
2022/11/02 04:52:58;;;;;;;15.52;8.10;;;;;;;;;;5092388;28;20060;-53
2022/11/02 04:55:27;;;;;;;18.45;8.73;;;;;;;;;;5092011;28;20355;-54
2022/11/02 04:57:55;;;;;;;19.48;10.77;;;;;;;;;;5092323;28;20528;-55
2022/11/02 05:00:25;;;;;;;18.58;10.00;;;;;;;;;;5078691;28;20048;-55
2022/11/02 05:02:54;;;;;;;15.82;7.47;;;;;;;;;;5092215;28;20440;-55
2022/11/02 05:05:25;;;;;;;14.95;7.85;;;;;;;;;;5091983;28;20079;-55
2022/11/02 05:07:55;;;;;;;13.45;7.50;;;;;;;;;;5092275;28;20058;-55
2022/11/02 05:10:23;;;;;;;14.50;7.35;;;;;;;;;;5092269;28;20052;-54
2022/11/02 05:12:56;;;;;;;14.52;7.18;;;;;;;;;;5091981;28;20048;-54
2022/11/02 05:15:22;;;;;;;16.80;8.32;;;;;;;;;;5092131;28;20476;-55
2022/11/02 05:17:48;;;;;;;17.85;7.28;;;;;;;;;;5091801;28;20084;-55
2022/11/02 05:20:18;;;;;;;13.00;7.32;;;;;;;;;;5091569;28;20044;-51
2022/11/02 05:22:59;;;;;;;17.50;8.48;;;;;;;;;;5091917;28;20121;-54
2022/11/02 05:25:29;;;;;;;15.52;7.75;;;;;;;;;;5091607;28;20064;-54
2022/11/02 05:27:56;;;;;;;11.98;7.20;;;;;;;;;;5091918;28;20048;-54
2022/11/02 05:30:23;;;;;;;18.13;8.27;;;;;;;;;;5095006;28;20078;-54
2022/11/02 05:32:52;;;;;;;15.57;7.55;;;;;;;;;;5092067;28;20047;-54
2022/11/02 05:35:21;;;;;;;16.02;8.02;;;;;;;;;;5095398;28;20056;-53
2022/11/02 05:37:55;;;;;;;13.98;8.02;;;;;;;;;;5093320;28;20048;-55
2022/11/02 05:40:24;;;;;;;14.88;7.45;;;;;;;;;;5095166;28;20080;-51
2022/11/02 05:42:53;;;;;;;13.35;7.55;;;;;;;;;;5095295;28;20066;-51
2022/11/02 05:45:20;;;;;;;19.88;8.30;;;;;;;;;;5094798;28;20063;-50
2022/11/02 05:47:50;;;;;;;17.92;9.43;;;;;;;;;;5083048;28;20055;-53
2022/11/02 05:50:20;;;;;;;11.10;6.50;;;;;;;;;;5095513;28;20050;-55
2022/11/02 05:53:00;;;;;;;14.48;7.45;;;;;;;;;;5084156;28;20048;-55
2022/11/02 05:55:29;;;;;;;15.18;7.80;;;;;;;;;;5094698;28;20051;-55
2022/11/02 05:57:57;;;;;;;14.73;7.65;;;;;;;;;;5095395;28;20059;-55
2022/11/02 06:00:24;;;;;;;18.83;8.07;;;;;;;;;;5095155;28;20048;-53
2022/11/02 06:02:58;;;;;;;16.20;8.20;;;;;;;;;;5095096;28;20570;-52
2022/11/02 06:05:26;;;;;;;15.13;7.47;;;;;;;;;;5093932;28;20056;-55
2022/11/02 06:07:57;;;;;;;14.15;7.60;;;;;;;;;;5094874;28;20522;-52
2022/11/02 06:10:25;;;;;;;15.50;8.05;;;;;;;;;;5083722;28;20048;-52
2022/11/02 06:13:00;;;;;;;16.25;8.48;;;;;;;;;;5094944;28;20055;-53
2022/11/02 06:15:28;;;;;;;13.88;7.97;;;;;;;;;;5094842;28;20060;-54
2022/11/02 06:17:56;;;;;;;14.70;8.00;;;;;;;;;;5094563;28;20083;-53
2022/11/02 06:20:26;;;;;;;17.00;8.82;;;;;;;;;;5094832;28;20473;-55
2022/11/02 06:22:52;;;;;;;21.95;10.15;;;;;;;;;;5094850;28;20052;-54
2022/11/02 06:25:22;;;;;;;18.30;9.55;;;;;;;;;;5092701;28;20063;-55
2022/11/02 06:27:55;;;;;;;17.17;8.85;;;;;;;;;;5094215;28;20048;-54
2022/11/02 06:30:27;;;;;;;15.20;8.73;;;;;;;;;;5092907;28;20055;-55
2022/11/02 06:32:53;;;;;;;16.40;8.63;;;;;;;;;;5094367;28;20056;-55
2022/11/02 06:35:21;;;;;;;17.25;9.98;;;;;;;;;;5094487;28;20051;-55
2022/11/02 06:37:48;;;;;;;26.92;11.98;;;;;;;;;;5091599;28;20055;-53
2022/11/02 06:40:15;;;;;;;26.92;12.13;;;;;;;;;;5093613;28;20052;-54
2022/11/02 06:42:45;;;;;;;23.25;11.18;;;;;;;;;;5094497;28;20048;-54
2022/11/02 06:45:15;;;;;;;20.17;10.48;;;;;;;;;;5093692;28;20063;-55
2022/11/02 06:47:54;;;;;;;24.15;11.15;;;;;;;;;;5094053;28;20402;-53
2022/11/02 06:50:23;;;;;;;20.67;10.10;;;;;;;;;;5093899;28;20472;-53
2022/11/02 06:52:53;;;;;;;17.52;8.60;;;;;;;;;;5081606;28;20079;-54
2022/11/02 06:55:21;;;;;;;14.35;7.63;;;;;;;;;;5093609;28;20499;-55
2022/11/02 06:57:48;;;;;;;15.68;8.80;;;;;;;;;;5094040;28;20052;-54
2022/11/02 07:00:19;;;;;;;17.50;8.13;;;;;;;;;;5093733;28;20059;-55
2022/11/02 07:03:02;;;;;;;13.52;7.93;;;;;;;;;;5093583;28;20138;-55
2022/11/02 07:05:31;;;;;;;16.73;7.57;;;;;;;;;;5089693;28;20075;-53
2022/11/02 07:07:59;;;;;;;16.48;7.28;;;;;;;;;;5091535;28;20040;-55
2022/11/02 07:10:28;;;;;;;14.57;7.60;;;;;;;;;;5090756;28;20059;-55
2022/11/02 07:12:55;;;;;;;12.10;6.68;;;;;;;;;;5093022;28;20079;-54
2022/11/02 07:15:24;;;;;;;13.73;6.93;;;;;;;;;;5092769;28;20353;-55
2022/11/02 07:17:52;;;;;;;14.80;8.00;;;;;;;;;;5093420;28;20135;-50
2022/11/02 07:20:29;;;;;;;12.23;6.68;;;;;;;;;;5091962;28;20139;-52
2022/11/02 07:22:56;;;;;;;14.05;7.57;;;;;;;;;;5086709;28;20048;-53
2022/11/02 07:25:32;;;;;;;18.98;6.88;;;;;;;;;;5082487;28;20052;-50
2022/11/02 07:28:01;;;;;;;16.05;7.13;;;;;;;;;;5093301;28;20091;-52
2022/11/02 07:30:29;;;;;;;21.20;7.50;;;;;;;;;;5093030;28;20056;-54
2022/11/02 07:32:56;;;;;;;12.55;7.07;;;;;;;;;;5093093;28;20044;-52
2022/11/02 07:35:26;;;;;;;14.73;8.52;;;;;;;;;;5083247;28;20334;-53
2022/11/02 07:37:58;;;;;;;14.00;7.30;;;;;;;;;;5082875;28;20453;-52
2022/11/02 07:40:27;;;;;;;12.40;6.85;;;;;;;;;;5092211;28;20407;-52
2022/11/02 07:42:54;;;;;;;14.50;7.13;;;;;;;;;;5080373;28;20044;-55
2022/11/02 07:45:22;;;;;;;12.25;6.38;;;;;;;;;;5091416;28;20067;-55
2022/11/02 07:47:52;;;;;;;15.15;6.80;;;;;;;;;;5091773;28;20054;-55
2022/11/02 07:50:21;;;;;;;17.40;6.05;;;;;;;;;;5088459;28;20492;-52
2022/11/02 07:52:51;;;;;;;13.95;6.50;;;;;;;;;;5079233;28;20420;-52
2022/11/02 07:55:21;;;;;;;11.00;5.57;;;;;;;;;;5092060;28;20385;-53
2022/11/02 07:57:57;;;;;;;12.38;5.28;;;;;;;;;;5088626;28;20087;-51
2022/11/02 08:00:26;;;;;;;13.32;6.53;;;;;;;;;;5090285;28;20063;-54
2022/11/02 08:02:55;;;;;;;8.65;5.18;;;;;;;;;;5092543;28;20059;-51
2022/11/02 08:05:23;;;;;;;9.07;5.15;;;;;;;;;;5091073;28;20076;-55
2022/11/02 08:08:02;;;;;;;11.80;5.60;;;;;;;;;;5092510;28;20135;-52
2022/11/02 08:10:31;;;;;;;12.82;5.85;;;;;;;;;;5091008;28;20052;-50
2022/11/02 08:13:00;;;;;;;15.18;6.38;;;;;;;;;;5092409;28;20047;-54
2022/11/02 08:15:26;;;;;;;10.85;5.47;;;;;;;;;;5090720;28;20134;-55
2022/11/02 08:17:59;;;;;;;10.60;5.45;;;;;;;;;;5086478;28;20044;-51
2022/11/02 08:20:26;;;;;;;9.88;5.65;;;;;;;;;;5083302;28;20055;-53
2022/11/02 08:22:54;;;;;;;11.48;5.55;;;;;;;;;;5091132;28;20051;-49
2022/11/02 08:25:33;;;;;;;16.45;6.03;;;;;;;;;;5091301;28;20059;-54
2022/11/02 08:28:01;;;;;;;10.57;5.85;;;;;;;;;;5092354;28;20036;-55
2022/11/02 08:30:30;;;;;;;11.63;6.25;;;;;;;;;;5092544;28;20062;-51
2022/11/02 08:33:04;;;;;;;10.82;6.07;;;;;;;;;;5089038;28;20044;-50
2022/11/02 08:35:36;;;;;;;10.27;5.05;;;;;;;;;;5091482;28;20473;-50
2022/11/02 08:38:04;;;;;;;13.63;6.15;;;;;;;;;;5087569;28;20064;-55
2022/11/02 08:40:46;;;;;;;9.00;4.65;;;;;;;;;;5089513;28;20056;-57
2022/11/02 08:43:13;;;;;;;8.40;4.90;;;;;;;;;;5091108;28;20051;-56
2022/11/02 08:45:45;;;;;;;9.25;4.72;;;;;;;;;;5080885;28;20063;-53
2022/11/02 08:48:12;;;;;;;10.13;4.35;;;;;;;;;;5087388;28;20108;-53
2022/11/02 08:50:40;;;;;;;9.55;4.60;;;;;;;;;;5090835;28;20056;-56
2022/11/02 08:53:07;;;;;;;8.48;4.10;;;;;;;;;;5091872;28;20044;-56
2022/11/02 08:55:37;;;;;;;10.52;4.28;;;;;;;;;;5091108;28;20048;-56
2022/11/02 08:58:07;;;;;;;8.13;3.92;;;;;;;;;;5081574;28;20067;-56
2022/11/02 09:00:35;;;;;;;10.82;4.15;;;;;;;;;;5077016;28;20453;-58
2022/11/02 09:03:04;;;;;;;10.15;4.00;;;;;;;;;;5092108;28;20047;-58
2022/11/02 09:05:42;;;;;;;11.15;4.47;;;;;;;;;;5095623;28;20112;-57
2022/11/02 09:08:11;;;;;;;9.70;4.18;;;;;;;;;;5096059;28;20036;-56
2022/11/02 09:10:41;;;;;;;7.95;3.80;;;;;;;;;;5094979;28;20067;-56
2022/11/02 09:13:19;;;;;;;8.85;4.00;;;;;;;;;;5096183;28;20052;-55
2022/11/02 09:15:51;;;;;;;7.43;4.20;;;;;;;;;;5095912;28;20058;-57
2022/11/02 09:18:19;;;;;;;9.27;4.68;;;;;;;;;;5083489;28;20464;-57
2022/11/02 09:20:47;;;;;;;10.25;4.00;;;;;;;;;;5091545;28;20048;-56
2022/11/02 09:23:16;;;;;;;7.10;3.55;;;;;;;;;;5094687;28;20379;-58
2022/11/02 09:25:48;;;;;;;6.68;3.40;;;;;;;;;;5095586;28;20067;-53
2022/11/02 09:28:18;;;;;;;7.38;3.70;;;;;;;;;;5094118;28;20055;-52
2022/11/02 09:30:55;;;;;;;7.40;3.28;;;;;;;;;;5090333;28;20072;-51
2022/11/02 09:33:23;;;;;;;7.07;3.10;;;;;;;;;;5084027;28;20694;-53
2022/11/02 09:35:51;;;;;;;10.05;3.53;;;;;;;;;;5096134;28;20075;-54
2022/11/02 09:38:20;;;;;;;6.55;2.83;;;;;;;;;;5095876;28;20058;-52
2022/11/02 09:41:02;;;;;;;7.47;3.55;;;;;;;;;;5085305;28;20063;-51
2022/11/02 09:43:36;;;;;;;8.18;3.38;;;;;;;;;;5096954;28;20060;-54
2022/11/02 09:46:04;;;;;;;9.63;2.92;;;;;;;;;;5094479;28;20070;-52
2022/11/02 09:48:34;;;;;;;8.98;3.20;;;;;;;;;;5094900;28;20044;-52
2022/11/02 09:51:04;;;;;;;10.93;3.08;;;;;;;;;;5095389;28;20105;-55
2022/11/02 09:53:36;;;;;;;8.32;3.10;;;;;;;;;;5094815;28;20056;-52
2022/11/02 09:56:19;;;;;;;7.95;3.00;;;;;;;;;;5089914;28;20048;-53
2022/11/02 09:58:49;;;;;;;12.32;3.05;;;;;;;;;;5090605;28;20484;-56
2022/11/02 10:01:21;;;;;;;11.52;3.42;;;;;;;;;;5093172;28;20070;-57
2022/11/02 10:03:55;;;;;;;6.72;3.72;;;;;;;;;;5088294;28;20051;-58
2022/11/02 10:06:25;;;;;;;8.93;4.30;;;;;;;;;;5092729;28;20468;-56
2022/11/02 10:08:59;;;;;;;6.15;2.72;;;;;;;;;;5091948;28;20047;-57
2022/11/02 10:11:34;;;;;;;7.15;3.55;;;;;;;;;;5083604;28;20366;-55
2022/11/02 10:14:07;;;;;;;9.68;3.47;;;;;;;;;;5089775;28;20048;-57
2022/11/02 10:16:36;;;;;;;7.90;3.88;;;;;;;;;;5093258;28;20460;-56
2022/11/02 10:19:05;;;;;;;6.97;3.55;;;;;;;;;;5094074;28;20464;-51
2022/11/02 10:21:33;;;;;;;7.32;3.17;;;;;;;;;;5092796;28;20058;-54
2022/11/02 10:24:07;;;;;;;7.57;4.38;;;;;;;;;;5092422;28;20051;-54
2022/11/02 10:26:42;;;;;;;7.85;4.07;;;;;;;;;;5088898;28;20055;-55
2022/11/02 10:29:18;;;;;;;11.57;3.78;;;;;;;;;;5089190;28;20059;-56
2022/11/02 10:31:48;;;;;;;9.35;4.47;;;;;;;;;;5080402;28;20351;-53
2022/11/02 10:34:20;;;;;;;8.52;4.75;;;;;;;;;;5092214;28;20047;-58
2022/11/02 10:36:55;;;;;;;8.77;4.13;;;;;;;;;;5085027;28;20055;-54
2022/11/02 10:39:30;;;;;;;12.82;4.68;;;;;;;;;;5094043;28;20076;-55
2022/11/02 10:42:11;;;;;;;7.57;4.70;;;;;;;;;;5094473;28;20051;-54
2022/11/02 10:44:48;;;;;;;8.00;4.22;;;;;;;;;;5093891;28;20321;-55
2022/11/02 10:47:17;;;;;;;11.68;4.30;;;;;;;;;;5094038;28;20052;-52
2022/11/02 10:50:04;;;;;;;16.98;4.80;;;;;;;;;;5093698;28;20060;-52
2022/11/02 10:52:34;;;;;;;11.02;4.18;;;;;;;;;;5063051;28;20061;-54
2022/11/02 10:55:02;;;;;;;11.95;5.28;;;;;;;;;;5091006;28;20047;-54
2022/11/02 10:57:39;;;;;;;11.80;4.38;;;;;;;;;;5093860;28;20052;-57
2022/11/02 11:00:26;;;;;;;18.65;5.63;;;;;;;;;;5093974;28;20052;-58
2022/11/02 11:03:07;;;;;;;12.32;4.07;;;;;;;;;;5091966;28;20052;-56
2022/11/02 11:05:37;;;;;;;11.13;5.75;;;;;;;;;;5093090;28;20047;-53
2022/11/02 11:08:05;;;;;;;13.25;4.63;;;;;;;;;;5093612;28;20055;-54
2022/11/02 11:10:36;;;;;;;12.98;5.45;;;;;;;;;;5089927;28;20479;-52
2022/11/02 11:13:06;;;;;;;11.85;6.07;;;;;;;;;;5087987;28;20048;-56
2022/11/02 11:15:36;;;;;;;17.73;6.35;;;;;;;;;;5090885;28;20056;-55
2022/11/02 11:18:11;;;;;;;13.07;6.07;;;;;;;;;;5093999;28;20044;-56
2022/11/02 11:20:40;;;;;;;16.52;7.10;;;;;;;;;;5093726;28;20063;-56
2022/11/02 11:23:16;;;;;;;21.92;8.10;;;;;;;;;;5092276;28;20048;-55
2022/11/02 11:25:43;;;;;;;17.55;7.70;;;;;;;;;;5084757;28;20049;-55
2022/11/02 11:28:23;;;;;;;15.55;7.38;;;;;;;;;;5065834;28;20059;-53
2022/11/02 11:31:02;;;;;;;14.43;7.32;;;;;;;;;;5064462;28;20811;-56
2022/11/02 11:33:31;;;;;;;18.55;6.93;;;;;;;;;;5081464;28;20179;-52
2022/11/02 11:35:59;;;;;;;19.63;6.97;;;;;;;;;;5093224;28;20047;-53
2022/11/02 11:38:26;;;;;;;11.65;6.20;;;;;;;;;;5085588;28;20058;-54
2022/11/02 11:41:03;;;;;;;14.07;6.95;;;;;;;;;;5081219;28;20058;-57
2022/11/02 11:43:44;;;;;;;14.75;7.00;;;;;;;;;;5092694;28;20052;-56
2022/11/02 11:46:15;;;;;;;13.43;6.90;;;;;;;;;;5090321;28;20067;-56
2022/11/02 11:48:45;;;;;;;13.93;7.18;;;;;;;;;;5093044;28;20079;-57
2022/11/02 11:51:30;;;;;;;20.98;8.50;;;;;;;;;;5087822;28;20473;-52
2022/11/02 11:54:15;;;;;;;14.30;7.38;;;;;;;;;;5088453;28;20112;-54
2022/11/02 11:56:47;;;;;;;16.92;7.22;;;;;;;;;;5090978;28;20055;-51
2022/11/02 11:59:23;;;;;;;12.93;7.07;;;;;;;;;;5089251;28;20056;-54
2022/11/02 12:01:55;;;;;;;14.73;6.70;;;;;;;;;;5090101;28;20052;-57
2022/11/02 12:04:30;;;;;;;17.70;7.40;;;;;;;;;;5089891;28;20059;-55
2022/11/02 12:07:15;;;;;;;12.45;6.15;;;;;;;;;;5090131;28;20052;-56
2022/11/02 12:09:46;;;;;;;15.07;7.00;;;;;;;;;;5088625;28;20048;-57
2022/11/02 12:12:20;;;;;;;16.92;7.22;;;;;;;;;;5089349;28;20052;-58
2022/11/02 12:14:53;;;;;;;19.70;7.35;;;;;;;;;;5086145;28;20050;-55
2022/11/02 12:17:28;;;;;;;17.75;7.03;;;;;;;;;;5089065;28;20063;-55
2022/11/02 12:20:01;;;;;;;15.82;6.90;;;;;;;;;;5086403;28;20117;-55
2022/11/02 12:22:35;;;;;;;15.45;6.88;;;;;;;;;;5086463;28;20048;-56
2022/11/02 12:25:09;;;;;;;13.05;6.00;;;;;;;;;;5085606;28;20048;-56
2022/11/02 12:27:42;;;;;;;12.77;6.75;;;;;;;;;;5086378;28;20052;-55
2022/11/02 12:30:14;;;;;;;14.95;5.75;;;;;;;;;;5087561;28;20808;-54
2022/11/02 12:32:48;;;;;;;10.90;5.63;;;;;;;;;;5088386;28;20059;-56
2022/11/02 12:35:41;;;;;;;14.55;5.78;;;;;;;;;;5086023;28;20094;-56
2022/11/02 12:38:14;;;;;;;18.55;5.28;;;;;;;;;;5074021;28;20467;-53
2022/11/02 12:40:49;;;;;;;10.23;5.05;;;;;;;;;;5091062;28;20137;-55
2022/11/02 12:43:28;;;;;;;12.17;5.53;;;;;;;;;;5090377;28;20056;-56
2022/11/02 12:46:10;;;;;;;14.23;5.60;;;;;;;;;;5089060;28;20067;-53
2022/11/02 12:48:42;;;;;;;12.20;5.88;;;;;;;;;;5094590;28;20048;-56
2022/11/02 12:51:12;;;;;;;11.30;5.50;;;;;;;;;;5096308;28;20044;-56
2022/11/02 12:53:43;;;;;;;11.50;5.88;;;;;;;;;;5095648;28;20083;-55
2022/11/02 12:56:16;;;;;;;17.27;5.45;;;;;;;;;;5090874;28;20056;-53
2022/11/02 12:58:46;;;;;;;12.75;5.95;;;;;;;;;;5095621;28;20080;-54
2022/11/02 13:01:19;;;;;;;11.05;5.68;;;;;;;;;;5096399;28;20056;-57
2022/11/02 13:03:50;;;;;;;14.02;5.85;;;;;;;;;;5096386;28;20158;-53
2022/11/02 13:06:21;;;;;;;12.40;5.53;;;;;;;;;;5094900;28;20066;-52
2022/11/02 13:08:51;;;;;;;13.30;5.38;;;;;;;;;;5095330;28;20044;-57
2022/11/02 13:11:21;;;;;;;11.60;5.43;;;;;;;;;;5091522;28;20047;-56
2022/11/02 13:13:51;;;;;;;11.70;6.07;;;;;;;;;;5091657;28;20074;-52
2022/11/02 13:16:24;;;;;;;9.95;5.13;;;;;;;;;;5093113;28;20066;-55
2022/11/02 13:18:53;;;;;;;12.48;4.70;;;;;;;;;;5091748;28;20102;-54
2022/11/02 13:21:30;;;;;;;10.63;5.15;;;;;;;;;;5090862;28;20059;-55
2022/11/02 13:23:59;;;;;;;15.25;5.38;;;;;;;;;;5093488;28;20048;-52
2022/11/02 13:26:30;;;;;;;12.70;5.68;;;;;;;;;;5091833;28;20059;-52
2022/11/02 13:29:02;;;;;;;12.02;5.57;;;;;;;;;;5091110;28;20411;-55
2022/11/02 13:31:36;;;;;;;8.48;4.78;;;;;;;;;;5093671;28;20358;-52
2022/11/02 13:34:06;;;;;;;9.27;4.65;;;;;;;;;;5092337;28;20464;-56
2022/11/02 13:36:36;;;;;;;12.05;4.80;;;;;;;;;;5093908;28;20113;-56
2022/11/02 13:39:08;;;;;;;9.93;4.97;;;;;;;;;;5095576;28;20586;-54
2022/11/02 13:41:52;;;;;;;12.38;5.05;;;;;;;;;;5095466;28;20051;-53
2022/11/02 13:44:29;;;;;;;11.35;5.88;;;;;;;;;;5085239;28;20152;-52
2022/11/02 13:47:08;;;;;;;14.93;5.65;;;;;;;;;;5094092;28;20044;-50
2022/11/02 13:49:37;;;;;;;11.52;5.43;;;;;;;;;;5084008;28;20048;-51
2022/11/02 13:52:05;;;;;;;15.73;6.30;;;;;;;;;;5094661;28;20373;-52
2022/11/02 13:54:34;;;;;;;12.80;5.68;;;;;;;;;;5095551;28;20067;-53
2022/11/02 13:57:02;;;;;;;15.63;5.93;;;;;;;;;;5094458;28;20476;-51
2022/11/02 13:59:32;;;;;;;10.35;5.00;;;;;;;;;;5094731;28;20052;-56
2022/11/02 14:02:03;;;;;;;9.80;5.05;;;;;;;;;;5095263;28;20044;-53
2022/11/02 14:04:41;;;;;;;9.65;4.55;;;;;;;;;;5091916;28;20860;-54
2022/11/02 14:07:09;;;;;;;10.57;5.25;;;;;;;;;;5094646;28;20051;-53
2022/11/02 14:09:41;;;;;;;9.55;5.07;;;;;;;;;;5095207;28;20048;-54
2022/11/02 14:12:13;;;;;;;8.20;5.50;;;;;;;;;;5092048;28;20058;-56
2022/11/02 14:14:41;;;;;;;9.73;5.10;;;;;;;;;;5095233;28;20048;-54
2022/11/02 14:17:16;;;;;;;9.98;5.32;;;;;;;;;;5094899;28;20047;-55
2022/11/02 14:20:03;;;;;;;12.50;5.07;;;;;;;;;;5094079;28;20380;-53
2022/11/02 14:22:31;;;;;;;10.95;5.75;;;;;;;;;;5093620;28;20686;-56
2022/11/02 14:25:18;;;;;;;11.07;4.78;;;;;;;;;;5091706;28;20056;-54
2022/11/02 14:27:46;;;;;;;12.48;6.00;;;;;;;;;;5094609;28;20105;-52
2022/11/02 14:30:32;;;;;;;12.20;5.47;;;;;;;;;;5094899;28;20044;-57
2022/11/02 14:33:03;;;;;;;15.93;5.90;;;;;;;;;;5090601;28;20049;-56
2022/11/02 14:35:39;;;;;;;12.15;5.80;;;;;;;;;;5094459;28;20063;-56
2022/11/02 14:38:12;;;;;;;10.88;5.15;;;;;;;;;;5081447;28;20044;-54
2022/11/02 14:40:46;;;;;;;13.13;5.32;;;;;;;;;;5094272;28;20056;-55
2022/11/02 14:43:29;;;;;;;18.17;6.40;;;;;;;;;;5092773;28;20052;-52
2022/11/02 14:46:01;;;;;;;14.43;6.47;;;;;;;;;;5093501;28;20067;-55
2022/11/02 14:48:30;;;;;;;11.98;5.32;;;;;;;;;;5092725;28;20052;-57
2022/11/02 14:51:01;;;;;;;16.40;6.43;;;;;;;;;;5091845;28;20362;-56
2022/11/02 14:53:29;;;;;;;14.32;6.22;;;;;;;;;;5093801;28;20094;-57
2022/11/02 14:55:56;;;;;;;19.80;7.40;;;;;;;;;;5093507;28;20468;-53
2022/11/02 14:58:25;;;;;;;20.00;6.90;;;;;;;;;;5094037;28;20063;-57
2022/11/02 15:00:57;;;;;;;15.02;6.78;;;;;;;;;;5093526;28;20055;-53
2022/11/02 15:03:34;;;;;;;13.60;7.13;;;;;;;;;;5095722;28;20062;-55
2022/11/02 15:06:06;;;;;;;16.13;6.88;;;;;;;;;;5092808;28;20055;-54
2022/11/02 15:08:37;;;;;;;11.75;5.88;;;;;;;;;;5093641;28;20043;-54
2022/11/02 15:11:19;;;;;;;14.32;6.38;;;;;;;;;;5090123;28;20494;-54
2022/11/02 15:13:47;;;;;;;12.35;6.30;;;;;;;;;;5086948;28;20381;-55
2022/11/02 15:16:31;;;;;;;10.70;6.18;;;;;;;;;;5093773;28;20059;-51
2022/11/02 15:19:29;;;;;;;9.75;5.97;;;;;;;;;;5082578;28;20404;-51